Terminal Aerodrome Forecast
Issued by NWS

Home | Current Version | Previous Version | Text Only | Print | Product List | Glossary On
Versions: 1 2 3 4 5 6 7 8 9 10 11 12 13 14 15 16 17 18 19 20 21 22 23 24
890
FTUS44 KMOB 180529
TAFBFM
TAF
KBFM 180529Z 1806/1906 15005KT P6SM BKN350
     FM180900 17005KT 5SM BR BKN030 BKN350
     FM181400 20012KT P6SM OVC035
     FM190200 22011KT P6SM VCSH OVC030=

USA.gov is the U.S. government's official web portal to all federal, state and local government web resources and services.